Latest Coastal Weather Observations for Wilsons Promontory

IDT60701

Issued at 11:11 am EDT Thursday 5 March 2015 (issued every 10 minutes, with the page automatically refreshed every 10 minutes)

About coastal observations | Map of coastal stations | Coastal observations for TAS | Marine services | Other Formats
Station Details ID: 085096 Name: WILSONS PROMONTORY LIGHTHOUSE Lat: -39.13 Lon: 146.42 Height: 95.0 m
Data from the previous 72 hours. | See also: Recent months at Wilsons Promontory
Date/Time
EDT
Temp

°C
Wind Pressure Rain
since 9am
mm
Weather Cloud Vis
km
Sea
Height
m
Swell
Dir
 
Speed
knots
Gust
knots
hPa Trend Height
m
Period
s
Dir
05/11:00am 13.4 WSW 47 58 1011.1 - 1.4 - - - - - - -
05/10:58am 13.1 WSW 47 58 1010.8 - 1.4 - - - - - - -
05/10:57am 13.3 WSW 45 58 1011.0 - 1.4 - - - - - - -
05/10:47am 12.8 WSW 57 68 1010.4 - 1.4 - - - - - - -
05/10:42am 12.2 WSW 60 68 1009.3 - 1.4 - - - - - - -
05/10:30am 13.5 WSW 44 60 1010.8 - 1.2 - - - - - - -
05/10:21am 12.0 WSW 44 55 1011.2 - 1.2 - - - - - - -
05/10:18am 12.5 WSW 47 53 1010.5 - 1.0 - - - - - - -
05/10:14am 12.2 WSW 34 63 1011.2 - 1.0 - - - - - - -
05/10:12am 12.3 WSW 36 63 1011.0 - 1.0 - - - - - - -
05/10:06am 11.6 SW 50 63 1010.2 - 0.4 - - - - - - -
05/10:02am 12.8 WSW 34 47 1011.1 - 0.4 - - - - - - -
05/10:00am 12.8 WSW 33 54 1011.0 - 0.4 - - - - - - -
05/09:58am 12.4 WSW 34 54 1010.9 - 0.4 - - - - - - -
05/09:44am 12.0 WSW 46 56 1009.8 - 0.2 - - - - - - -
05/09:43am 12.4 WSW 48 56 1009.8 - 0.0 - - - - - - -
05/09:30am 13.4 WSW 35 47 1010.2 - 0.0 - - - - - - -
05/09:18am 12.8 W 37 67 1010.1 - 0.0 - - - - - - -
05/09:16am 12.9 W 38 67 1009.6 - 0.0 - - - - - - -
05/09:00am 13.1 SW 51 63 1007.6 - 3.2 - - - - - - -
05/08:45am 12.4 SW 52 62 1008.5 - 3.2 - - - - - - -
05/08:39am 12.7 SW 55 61 1007.6 - 3.2 - - - - - - -
05/08:30am 11.9 SW 44 58 1008.0 - 3.2 - - - - - - -
05/08:26am 11.6 SW 37 58 1008.7 - 3.2 - - - - - - -
05/08:17am 13.2 SW 54 65 1007.9 - 3.0 - - - - - - -
05/08:07am 13.0 SW 59 69 1006.7 - 3.0 - - - - - - -
05/08:03am 11.9 WSW 47 73 1008.1 - 3.0 - - - - - - -
05/08:02am 11.7 WSW 49 73 1007.7 - 3.0 - - - - - - -
05/08:00am 11.2 SW 61 73 1006.9 - 3.0 - - - - - - -
05/07:58am 11.8 SW 63 73 1006.0 - 3.0 - - - - - - -
05/07:30am 13.4 WSW 53 66 1006.8 - 3.0 - - - - - - -
05/07:26am 13.4 WSW 56 66 1006.2 - 3.0 - - - - - - -
05/07:23am 13.5 WSW 58 66 1005.3 - 3.0 - - - - - - -
05/07:21am 13.7 WSW 45 68 1006.5 - 3.0 - - - - - - -
05/07:13am 13.4 WSW 58 68 1005.6 - 3.0 - - - - - - -
05/07:09am 13.3 WSW 59 68 1005.0 - 3.0 - - - - - - -
05/07:04am 12.8 WSW 42 69 1006.2 - 3.0 - - - - - - -
05/07:00am 12.6 WSW 56 69 1005.0 - 3.0 - - - - - - -
05/06:43am 13.5 WSW 58 68 1004.8 - 3.0 - - - - - - -
05/06:38am 13.4 WSW 60 68 1004.0 - 3.0 - - - - - - -
05/06:35am 13.5 W 47 70 1004.8 - 3.0 - - - - - - -
05/06:30am 13.6 WSW 58 70 1003.6 - 3.0 - - - - - - -
05/06:13am 13.7 WSW 51 65 1004.0 - 3.0 - - - - - - -
05/06:03am 13.6 W 41 64 1004.5 - 3.0 - - - - - - -
05/06:01am 13.6 WSW 54 64 1004.1 - 3.0 - - - - - - -
05/06:00am 13.7 WSW 56 64 1003.7 - 3.0 - - - - - - -
05/05:59am 13.6 WSW 55 64 1003.9 - 3.0 - - - - - - -
05/05:30am 13.4 W 43 61 1003.7 - 3.0 - - - - - - -
05/05:25am 13.5 W 43 66 1003.5 - 3.0 - - - - - - -
05/05:19am 13.4 WSW 56 66 1002.1 - 3.0 - - - - - - -
05/05:11am 13.2 W 43 73 1003.4 - 3.0 - - - - - - -
05/05:09am 13.1 WSW 56 73 1001.7 - 3.0 - - - - - - -
05/05:02am 13.9 W 38 66 1003.6 - 3.0 - - - - - - -
05/05:00am 13.9 WSW 52 66 1002.5 - 3.0 - - - - - - -
05/04:59am 13.6 WSW 53 67 1002.4 - 3.0 - - - - - - -
05/04:31am 13.6 W 37 70 1003.1 - 3.0 - - - - - - -
05/04:30am 13.6 WSW 51 70 1002.7 - 3.0 - - - - - - -
05/04:21am 13.9 WSW 53 67 1001.2 - 3.0 - - - - - - -
05/04:00am 13.9 WSW 40 60 1003.0 - 3.0 - - - - - - -
05/03:59am 13.9 WSW 40 60 1002.6 - 3.0 - - - - - - -
05/03:58am 14.0 WSW 40 67 1002.7 - 3.0 - - - - - - -
05/03:49am 13.6 W 50 75 1001.1 - 3.0 - - - - - - -
05/03:48am 13.6 W 50 75 1000.9 - 3.0 - - - - - - -
05/03:37am 13.4 WSW 61 84 1000.3 - 3.0 - - - - - - -
05/03:34am 13.1 WSW 74 84 998.6 - 3.0 - - - - - - -
05/03:33am 13.1 SW 73 81 998.7 - 3.0 - - - - - - -
05/03:30am 13.5 WSW 57 72 999.7 - 3.0 - - - - - - -
05/03:28am 14.1 WSW 54 68 1000.1 - 3.0 - - - - - - -
05/03:00am 13.7 W 39 53 1001.0 - 2.8 - - - - - - -
05/02:38am 14.3 W 39 49 1002.1 - 2.0 - - - - - - -
05/02:30am 14.5 W 27 42 1002.8 - 1.4 - - - - - - -
05/02:17am 14.5 W 33 43 1003.0 - 1.2 - - - - - - -
05/02:15am 14.4 W 34 44 1003.0 - 1.2 - - - - - - -
05/02:09am 14.6 WSW 22 49 1003.3 - 1.0 - - - - - - -
05/02:00am 14.8 W 36 49 1003.0 - 0.6 - - - - - - -
05/01:54am 15.4 W 38 49 1002.7 - 0.6 - - - - - - -
05/01:51am 15.3 W 38 46 1002.6 - 0.6 - - - - - - -
05/01:47am 15.3 W 26 48 1003.1 - 0.6 - - - - - - -
05/01:30am 15.6 W 40 56 1003.1 - 0.2 - - - - - - -
05/01:12am 15.9 W 37 61 1002.8 - 0.0 - - - - - - -
05/01:08am 16.8 W 51 61 1001.9 - 0.0 - - - - - - -
05/01:06am 17.7 W 36 61 1002.6 - 0.0 - - - - - - -
05/01:00am 17.8 W 34 51 1002.9 - 0.0 - - - - - - -
05/12:48am 17.8 W 37 52 1002.5 - 0.0 - - - - - - -
05/12:30am 17.7 W 25 39 1003.5 - 0.0 - - - - - - -
05/12:00am 17.5 W 29 42 1003.8 - 0.0 - - - - - - -
 
Date/Time
EDT
Temp

°C
Wind Pressure Rain
since 9am
mm
Weather Cloud Vis
km
Sea
Height
m
Swell
Dir
 
Speed
knots
Gust
knots
hPa Trend Height
m
Period
s
Dir
04/11:30pm 17.3 W 27 39 1004.4 - 0.0 - - - - - - -
04/11:00pm 17.3 W 27 42 1005.2 - 0.0 - - - - - - -
04/10:30pm 17.2 W 26 37 1005.7 - 0.0 - - - - - - -
04/10:00pm 17.3 W 28 40 1006.4 - 0.0 - - - - - - -
04/09:30pm 17.2 W 24 36 1006.4 - 0.0 - - - - - - -
04/09:02pm 17.2 W 24 34 1006.6 - 0.0 - - - - - - -
04/09:00pm 17.3 W 25 34 1006.3 - 0.0 - - - - - - -
04/08:30pm 17.3 W 27 41 1006.3 - 0.0 - - - - - - -
04/08:00pm 17.4 W 24 36 1006.6 - 0.0 - - - - - - -
04/07:30pm 17.6 W 29 39 1006.7 - 0.0 - - - - - - -
04/07:00pm 17.8 W 26 37 1007.2 - 0.0 - - - - - - -
04/06:30pm 17.8 W 25 39 1007.5 - 0.0 - - - - - - -
04/06:00pm 17.9 W 29 39 1007.5 - 0.0 - - - - - - -
04/05:30pm 17.8 W 26 39 1007.8 - 0.0 - - - - - - -
04/05:00pm 17.8 W 25 39 1008.1 - 0.0 - - - - - - -
04/04:30pm 17.4 W 28 40 1008.4 - 0.0 - - - - - - -
04/04:17pm 17.4 W 33 44 1008.3 - 0.0 - - - - - - -
04/04:16pm 17.4 W 35 44 1008.0 - 0.0 - - - - - - -
04/04:00pm 17.9 W 23 35 1008.4 - 0.0 - - - - - - -
04/03:59pm 18.0 W 23 35 1008.7 - 0.0 - - - - - - -
04/03:54pm 17.8 W 21 35 1008.8 - 0.0 - - - - - - -
04/03:30pm 17.5 W 32 43 1008.7 - 0.0 - - - - - - -
04/03:00pm 17.4 W 22 37 1009.0 - 0.0 - - - - - - -
04/02:30pm 17.5 W 19 38 1010.0 - 0.0 - - - - - - -
04/02:00pm 18.0 W 17 33 1010.5 - 0.0 - - - - - - -
04/01:30pm 17.8 W 18 29 1010.7 - 0.0 - - - - - - -
04/01:00pm 18.0 W 21 31 1010.8 - 0.0 - - - - - - -
04/12:30pm 17.0 W 22 36 1011.5 - 0.0 - - - - - - -
04/12:00pm 17.2 W 18 32 1011.5 - 0.0 - - - - - - -
04/11:30am 16.2 W 18 29 1012.5 - 0.0 - - - - - - -
04/11:19am 15.4 W 19 29 1012.3 - 0.0 - - - - - - -
04/11:17am 15.7 SW 12 27 1012.5 - 0.0 - - - - - - -
04/11:00am 16.0 W 20 31 1012.4 - 0.0 - - - - - - -
04/10:30am 15.2 W 23 34 1012.6 - 0.0 - - - - - - -
04/10:00am 16.5 W 19 31 1012.6 - 0.0 - - - - - - -
04/09:30am 16.7 W 15 26 1012.5 - 0.0 - - - - - - -
04/09:00am 16.5 W 19 31 1012.4 - 0.0 - - - - - - -
04/08:30am 16.4 W 15 27 1012.5 - 0.0 - - - - - - -
04/08:00am 16.4 W 20 30 1012.3 - 0.0 - - - - - - -
04/07:30am 16.3 W 17 27 1012.2 - 0.0 - - - - - - -
04/07:28am 16.2 W 17 27 1012.2 - 0.0 - - - - - - -
04/07:00am 16.1 W 15 23 1012.1 - 0.0 - - - - - - -
04/06:30am 16.0 W 12 18 1012.1 - 0.0 - - - - - - -
04/06:00am 15.9 W 12 21 1012.0 - 0.0 - - - - - - -
04/05:30am 15.9 W 13 24 1012.3 - 0.0 - - - - - - -
04/05:00am 15.9 W 14 19 1012.6 - 0.0 - - - - - - -
04/04:30am 15.9 W 18 25 1012.6 - 0.0 - - - - - - -
04/04:05am 16.0 W 16 26 1013.1 - 0.0 - - - - - - -
04/04:00am 15.9 W 17 26 1013.0 - 0.0 - - - - - - -
04/03:39am 15.9 W 15 25 1013.0 - 0.0 - - - - - - -
04/03:30am 15.9 W 14 19 1013.2 - 0.0 - - - - - - -
04/03:00am 15.6 W 12 19 1013.1 - 0.0 - - - - - - -
04/02:30am 15.7 W 13 18 1013.6 - 0.0 - - - - - - -
04/02:00am 15.6 W 13 18 1014.0 - 0.0 - - - - - - -
04/01:30am 15.8 W 15 21 1014.2 - 0.0 - - - - - - -
04/01:00am 16.1 W 13 18 1014.6 - 0.0 - - - - - - -
04/12:30am 16.2 W 14 23 1014.7 - 0.0 - - - - - - -
04/12:00am 16.4 W 16 23 1014.8 - 0.0 - - - - - - -
 
Date/Time
EDT
Temp

°C
Wind Pressure Rain
since 9am
mm
Weather Cloud Vis
km
Sea
Height
m
Swell
Dir
 
Speed
knots
Gust
knots
hPa Trend Height
m
Period
s
Dir
03/11:30pm 16.5 W 15 22 1015.2 - 0.0 - - - - - - -
03/11:00pm 16.5 W 14 19 1015.3 - 0.0 - - - - - - -
03/10:30pm 16.6 W 15 23 1015.4 - 0.0 - - - - - - -
03/10:00pm 16.6 W 11 16 1015.5 - 0.0 - - - - - - -
03/09:30pm 16.8 W 12 20 1015.3 - 0.0 - - - - - - -
03/09:00pm 16.7 W 13 18 1015.0 - 0.0 - - - - - - -
03/08:30pm 16.7 W 11 17 1015.0 - 0.0 - - - - - - -
03/08:00pm 17.0 W 12 19 1014.7 - 0.0 - - - - - - -
03/07:30pm 17.3 W 11 17 1014.8 - 0.0 - - - - - - -
03/07:00pm 17.7 W 14 18 1014.6 - 0.0 - - - - - - -
03/06:30pm 18.0 W 12 17 1014.5 - 0.0 - - - - - - -
03/06:00pm 18.3 W 14 18 1014.5 - 0.0 - - - - - - -
03/05:30pm 18.5 W 14 19 1014.8 - 0.0 - - - - - - -
03/05:00pm 18.8 W 16 19 1015.0 - 0.0 - - - - - - -
03/04:30pm 19.2 W 14 18 1015.1 - 0.0 - - - - - - -
03/04:00pm 19.1 W 17 20 1015.2 - 0.0 - - - - - - -
03/03:30pm 19.1 W 14 19 1015.5 - 0.0 - - - - - - -
03/03:00pm 18.6 W 12 19 1015.5 - 0.0 - - - - - - -
03/02:30pm 17.9 WSW 14 19 1016.0 - 0.0 - - - - - - -
03/02:00pm 17.9 WSW 16 19 1016.1 - 0.0 - - - - - - -
03/01:30pm 17.9 WSW 12 16 1016.1 - 0.0 - - - - - - -
03/01:00pm 18.2 SW 12 14 1016.5 - 0.0 - - - - - - -
03/12:30pm 18.0 SW 12 16 1016.8 - 0.0 - - - - - - -
03/12:00pm 17.9 WSW 10 13 1016.8 - 0.0 - - - - - - -
03/11:30am 17.7 SW 12 15 1017.0 - 0.0 - - - - - - -
03/11:00am 17.4 WSW 11 15 1017.2 - 0.0 - - - - - - -
03/10:30am 17.2 WSW 15 18 1016.9 - 0.0 - - - - - - -
03/10:00am 17.0 SW 18 23 1016.5 - 0.0 - - - - - - -
03/09:30am 17.0 SW 19 22 1016.4 - 0.0 - - - - - - -
03/09:00am 16.5 WSW 17 21 1016.1 - 0.0 - - - - - - -
03/08:30am 16.4 SW 18 22 1016.0 - 0.0 - - - - - - -
03/08:00am 16.3 SW 12 16 1015.8 - 0.0 - - - - - - -
03/07:30am 15.8 W 11 16 1015.4 - 0.0 - - - - - - -
03/07:00am 15.4 W 9 13 1015.2 - 0.0 - - - - - - -
03/06:30am 15.6 W 8 14 1014.8 - 0.0 - - - - - - -
03/06:00am 16.0 SW 13 18 1014.2 - 0.0 - - - - - - -
03/05:30am 16.1 SW 13 18 1014.4 - 0.0 - - - - - - -
03/05:00am 16.1 SW 11 14 1014.0 - 0.0 - - - - - - -
03/04:30am 16.2 SW 12 16 1014.4 - 0.0 - - - - - - -
03/04:00am 16.4 SW 13 17 1014.5 - 0.0 - - - - - - -
03/03:30am 16.5 SW 11 15 1014.3 - 0.0 - - - - - - -
03/03:00am 16.6 SW 15 19 1014.2 - 0.0 - - - - - - -
03/02:30am 17.3 SW 19 22 1014.4 - 0.0 - - - - - - -
03/02:00am 17.4 SW 20 22 1014.2 - 0.0 - - - - - - -
03/01:48am 17.4 SW 21 23 1014.1 - 0.0 - - - - - - -
03/01:30am 17.1 W 13 18 1014.2 - 0.0 - - - - - - -
03/01:00am 16.9 W 9 11 1014.6 - 0.0 - - - - - - -
03/12:30am 17.0 W 9 12 1015.1 - 0.0 - - - - - - -
03/12:00am 17.1 W 7 9 1014.8 - 0.0 - - - - - - -
 
Date/Time
EDT
Temp

°C
Wind Pressure Rain
since 9am
mm
Weather Cloud Vis
km
Sea
Height
m
Swell
Dir
 
Speed
knots
Gust
knots
hPa Trend Height
m
Period
s
Dir
02/11:30pm 17.0 W 8 9 1015.1 - 0.0 - - - - - - -
02/11:00pm 16.9 WNW 4 7 1015.2 - 0.0 - - - - - - -
02/10:30pm 17.1 W 6 8 1015.6 - 0.0 - - - - - - -
02/10:00pm 17.0 N 1 4 1015.7 - 0.0 - - - - - - -
02/09:30pm 16.9 N 7 11 1015.5 - 0.0 - - - - - - -
02/09:00pm 16.7 N 9 11 1015.0 - 0.0 - - - - - - -
02/08:30pm 16.8 N 9 11 1014.9 - 0.0 - - - - - - -
02/08:00pm 16.7 N 11 13 1014.6 - 0.0 - - - - - - -
02/07:30pm 17.0 NNE 10 14 1014.4 - 0.0 - - - - - - -
02/07:00pm 17.3 NNE 11 15 1014.5 - 0.0 - - - - - - -
02/06:30pm 17.3 NE 12 15 1014.3 - 0.0 - - - - - - -
02/06:00pm 17.9 NNE 12 16 1014.5 - 0.0 - - - - - - -
02/05:30pm 17.7 NE 12 15 1014.6 - 0.0 - - - - - - -
02/05:00pm 18.0 NE 10 13 1014.9 - 0.0 - - - - - - -
02/04:30pm 17.8 NE 10 14 1015.2 - 0.0 - - - - - - -
02/04:00pm 17.5 NE 12 16 1014.3 - 0.0 - - - - - - -
02/03:30pm 17.6 ENE 11 14 1015.4 - 0.0 - - - - - - -
02/03:00pm 17.5 ENE 12 15 1015.5 - 0.0 - - - - - - -
02/02:30pm 17.9 ENE 11 13 1016.1 - 0.0 - - - - - - -
02/02:00pm 17.6 E 13 15 1015.9 - 0.0 - - - - - - -
02/01:30pm 18.1 E 11 14 1016.4 - 0.0 - - - - - - -
02/01:00pm 17.8 ENE 11 14 1016.7 - 0.0 - - - - - - -
02/12:30pm 18.0 E 10 13 1017.4 - 0.0 - - - - - - -
02/12:00pm 17.8 ENE 12 15 1017.4 - 0.0 - - - - - - -
02/11:30am 17.6 ENE 12 14 1018.0 - 0.0 - - - - - - -

Other Formats:

Comma delimited format used in spreadsheet applications
http://www.bom.gov.au/fwo/IDT60701/IDT60701.94893.axf

JavaScript Object Notation format (JSON) in row-major order
http://www.bom.gov.au/fwo/IDT60701/IDT60701.94893.json